Time;durP1;ratioP1;P1;durP2;ratioP2;P2;SDS_P1;SDS_P2;PMS_P1;PMS_P2;Temp;Humidity;BMP_temperature;BMP_pressure;BME280_temperature;BME280_humidity;BME280_pressure;Samples;Min_cycle;Max_cycle;Signal;HPM_P1;HPM_P2
2023/10/11 00:02:18;;;;;;;11.53;7.23;;;17.00;99.90;;;;;;5113593;28;20223;-79
2023/10/11 00:04:48;;;;;;;11.20;6.63;;;17.00;99.90;;;;;;5113696;28;20210;-79
2023/10/11 00:07:18;;;;;;;7.70;6.77;;;17.00;99.90;;;;;;5113639;28;20195;-77
2023/10/11 00:09:44;;;;;;;8.87;6.67;;;16.90;99.90;;;;;;5113676;28;20175;-77
2023/10/11 00:12:11;;;;;;;7.73;6.50;;;16.90;99.90;;;;;;5113845;28;20174;-78
2023/10/11 00:14:42;;;;;;;10.07;6.47;;;16.90;99.90;;;;;;5113213;28;20188;-77
2023/10/11 00:17:11;;;;;;;11.13;6.80;;;16.90;99.90;;;;;;5113717;28;20179;-78
2023/10/11 00:19:39;;;;;;;9.60;6.80;;;16.80;99.90;;;;;;5112231;28;20179;-77
2023/10/11 00:22:05;;;;;;;11.63;6.67;;;16.80;99.90;;;;;;5113049;28;20272;-78
2023/10/11 00:24:32;;;;;;;8.67;6.07;;;16.80;99.90;;;;;;5113491;28;20301;-77
2023/10/11 00:26:57;;;;;;;9.37;6.43;;;16.80;99.90;;;;;;5113307;28;20178;-79
2023/10/11 00:29:23;;;;;;;9.73;6.23;;;16.80;99.90;;;;;;5116864;28;20179;-78
2023/10/11 00:31:51;;;;;;;9.10;6.60;;;16.80;99.90;;;;;;5117358;28;20171;-78
2023/10/11 00:34:18;;;;;;;9.37;6.77;;;16.80;99.90;;;;;;5117538;28;20167;-78
2023/10/11 00:36:45;;;;;;;9.13;6.50;;;16.90;99.90;;;;;;5117126;28;20239;-77
2023/10/11 00:39:17;;;;;;;6.97;6.10;;;16.80;99.90;;;;;;5117293;28;20171;-77
2023/10/11 00:41:46;;;;;;;10.33;6.60;;;16.80;99.90;;;;;;5116996;28;20179;-79
2023/10/11 00:44:16;;;;;;;9.13;6.43;;;16.90;99.90;;;;;;5117489;28;20210;-77
2023/10/11 00:46:59;;;;;;;11.77;6.10;;;16.90;99.90;;;;;;5116004;28;20178;-78
2023/10/11 00:49:35;;;;;;;9.00;6.40;;;16.90;99.90;;;;;;5116986;28;20183;-77
2023/10/11 00:52:04;;;;;;;12.10;6.13;;;16.90;99.90;;;;;;5116913;28;20317;-78
2023/10/11 00:54:30;;;;;;;10.93;6.43;;;16.80;99.90;;;;;;5117151;28;20182;-77
2023/10/11 00:56:56;;;;;;;9.17;5.93;;;16.90;99.90;;;;;;5116706;28;20163;-77
2023/10/11 00:59:22;;;;;;;11.10;6.27;;;16.80;99.90;;;;;;5116859;28;20660;-79
2023/10/11 01:01:51;;;;;;;7.70;6.07;;;16.80;99.90;;;;;;5116913;28;20181;-77
2023/10/11 01:04:18;;;;;;;10.27;5.93;;;16.70;99.90;;;;;;5115391;28;20275;-78
2023/10/11 01:06:47;;;;;;;6.70;5.63;;;16.70;99.90;;;;;;5116669;28;20187;-78
2023/10/11 01:09:26;;;;;;;7.23;5.70;;;16.70;99.90;;;;;;5116803;28;20163;-78
2023/10/11 01:11:52;;;;;;;9.37;5.80;;;16.80;99.90;;;;;;5115423;28;20251;-78
2023/10/11 01:14:17;;;;;;;7.67;5.80;;;16.70;99.90;;;;;;5116437;27;20259;-78
2023/10/11 01:16:43;;;;;;;7.40;5.80;;;16.70;99.90;;;;;;5116868;28;20175;-78
2023/10/11 01:19:15;;;;;;;10.83;6.03;;;16.70;99.90;;;;;;5116480;28;20695;-77
2023/10/11 01:21:46;;;;;;;7.20;5.87;;;16.80;99.90;;;;;;5114791;28;20219;-76
2023/10/11 01:24:14;;;;;;;8.23;5.77;;;16.80;99.90;;;;;;5116562;28;20301;-79
2023/10/11 01:26:41;;;;;;;8.70;6.10;;;16.70;99.90;;;;;;5116159;28;20187;-78
2023/10/11 01:29:09;;;;;;;10.90;6.20;;;16.70;99.90;;;;;;5116663;28;20626;-78
2023/10/11 01:31:36;;;;;;;10.67;6.23;;;16.80;99.90;;;;;;5116523;28;20179;-78
2023/10/11 01:34:02;;;;;;;8.83;5.90;;;16.80;99.90;;;;;;5116144;28;20680;-77
2023/10/11 01:36:27;;;;;;;10.60;6.13;;;16.80;99.90;;;;;;5116307;28;20179;-78
2023/10/11 01:38:54;;;;;;;10.67;5.83;;;16.80;99.90;;;;;;5115721;28;20175;-77
2023/10/11 01:41:22;;;;;;;8.63;5.90;;;16.80;99.90;;;;;;5114901;28;20186;-79
2023/10/11 01:43:49;;;;;;;9.70;5.90;;;16.80;99.90;;;;;;5116237;28;20215;-78
2023/10/11 01:46:17;;;;;;;9.47;5.97;;;16.70;99.90;;;;;;5114721;28;20168;-78
2023/10/11 01:48:45;;;;;;;8.70;5.87;;;16.70;99.90;;;;;;5116164;28;20175;-78
2023/10/11 01:51:11;;;;;;;10.63;6.40;;;16.70;99.90;;;;;;5115932;28;20623;-77
2023/10/11 01:53:37;;;;;;;7.47;6.10;;;16.70;99.90;;;;;;5116076;28;20198;-77
2023/10/11 01:56:03;;;;;;;11.40;6.07;;;16.70;99.90;;;;;;5115295;28;20176;-78
2023/10/11 01:58:29;;;;;;;11.00;6.60;;;16.70;99.90;;;;;;5115944;27;20538;-78
2023/10/11 02:00:55;;;;;;;11.50;6.67;;;16.70;99.90;;;;;;5115776;28;20168;-78
2023/10/11 02:03:24;;;;;;;10.87;6.70;;;16.70;99.90;;;;;;5115713;28;20203;-76
2023/10/11 02:05:50;;;;;;;11.40;6.47;;;16.70;99.90;;;;;;5115956;28;20174;-78
2023/10/11 02:08:17;;;;;;;13.03;6.87;;;16.70;99.90;;;;;;5115620;28;20220;-78
2023/10/11 02:10:44;;;;;;;10.83;6.47;;;16.70;99.90;;;;;;5115158;28;20258;-77
2023/10/11 02:13:11;;;;;;;10.37;6.83;;;16.60;99.90;;;;;;5115414;28;20175;-77
2023/10/11 02:15:39;;;;;;;10.43;7.00;;;16.60;99.90;;;;;;5115534;28;20179;-79
2023/10/11 02:18:10;;;;;;;10.47;6.47;;;16.60;99.90;;;;;;5115446;28;20174;-78
2023/10/11 02:20:43;;;;;;;9.47;6.80;;;16.60;99.90;;;;;;5115068;28;20223;-77
2023/10/11 02:23:09;;;;;;;10.07;6.80;;;16.60;99.90;;;;;;5114847;28;20207;-78
2023/10/11 02:25:34;;;;;;;13.63;7.13;;;16.60;99.90;;;;;;5115174;28;20231;-79
2023/10/11 02:28:00;;;;;;;12.50;7.77;;;16.60;99.90;;;;;;5114067;28;20533;-77
2023/10/11 02:30:25;;;;;;;12.07;7.10;;;16.60;99.90;;;;;;5115209;28;20194;-79
2023/10/11 02:32:53;;;;;;;11.93;7.47;;;16.60;99.90;;;;;;5115052;28;20198;-78
2023/10/11 02:35:19;;;;;;;9.83;6.80;;;16.50;99.90;;;;;;5113638;28;20171;-78
2023/10/11 02:37:47;;;;;;;9.53;6.70;;;16.60;99.90;;;;;;5114642;28;20167;-78
2023/10/11 02:40:16;;;;;;;9.03;6.70;;;16.70;99.90;;;;;;5114848;28;20171;-78
2023/10/11 02:42:46;;;;;;;11.17;6.93;;;16.60;99.90;;;;;;5114793;28;20159;-78
2023/10/11 02:45:13;;;;;;;10.47;6.70;;;16.60;99.90;;;;;;5114757;28;20172;-77
2023/10/11 02:47:42;;;;;;;11.20;6.60;;;16.60;99.90;;;;;;5114801;28;20666;-78
2023/10/11 02:50:11;;;;;;;8.93;6.23;;;16.60;99.90;;;;;;5114376;28;20175;-78
2023/10/11 02:52:36;;;;;;;10.43;6.33;;;16.60;99.90;;;;;;5114194;28;20220;-78
2023/10/11 02:55:16;;;;;;;11.30;7.10;;;16.60;99.90;;;;;;5114422;28;20175;-78
2023/10/11 02:57:42;;;;;;;10.53;6.10;;;16.70;99.90;;;;;;5113411;28;20638;-78
2023/10/11 03:00:21;;;;;;;13.70;6.63;;;16.60;99.90;;;;;;5114433;28;20170;-78
2023/10/11 03:02:54;;;;;;;11.77;6.60;;;16.70;99.90;;;;;;5114658;28;20190;-77
2023/10/11 03:05:32;;;;;;;10.63;6.40;;;16.70;99.90;;;;;;5114974;28;20174;-79
2023/10/11 03:08:13;;;;;;;10.63;6.40;;;16.70;99.90;;;;;;5114145;28;20166;-77
2023/10/11 03:10:43;;;;;;;8.40;6.40;;;16.70;99.90;;;;;;5114173;28;20179;-77
2023/10/11 03:13:41;;;;;;;10.23;6.10;;;16.60;99.90;;;;;;5114490;28;20179;-78
2023/10/11 03:15:59;;;;;;;9.70;6.20;;;16.60;99.90;;;;;;5113729;28;20186;-78
2023/10/11 03:18:33;;;;;;;10.47;6.90;;;16.60;99.90;;;;;;5113938;28;20173;-77
2023/10/11 03:21:15;;;;;;;11.90;6.53;;;16.60;99.90;;;;;;5113358;28;20211;-79
2023/10/11 03:23:43;;;;;;;9.40;6.27;;;16.50;99.90;;;;;;5112676;28;20309;-79
2023/10/11 03:26:31;;;;;;;10.63;6.30;;;16.50;99.90;;;;;;5113877;28;20171;-78
2023/10/11 03:29:04;;;;;;;8.77;6.63;;;16.50;99.90;;;;;;5114142;28;20190;-77
2023/10/11 03:31:34;;;;;;;9.37;6.53;;;16.50;99.90;;;;;;5113855;28;20178;-77
2023/10/11 03:34:10;;;;;;;11.80;6.80;;;16.50;99.90;;;;;;5113619;28;20201;-78
2023/10/11 03:36:43;;;;;;;11.80;6.37;;;16.50;99.90;;;;;;5113631;28;20171;-78
2023/10/11 03:39:14;;;;;;;11.20;7.27;;;16.50;99.90;;;;;;5113661;28;20618;-78
2023/10/11 03:41:46;;;;;;;9.20;6.60;;;16.40;99.90;;;;;;5113431;28;20175;-76
2023/10/11 03:44:17;;;;;;;8.47;6.30;;;16.40;99.90;;;;;;5113496;28;20209;-78
2023/10/11 03:46:47;;;;;;;9.57;6.70;;;16.30;99.90;;;;;;5113917;28;20217;-78
2023/10/11 03:51:48;;;;;;;10.53;6.73;;;16.40;99.90;;;;;;5113258;28;20167;-77
2023/10/11 03:54:21;;;;;;;10.10;6.67;;;16.40;99.90;;;;;;5113108;28;20256;-78
2023/10/11 03:56:53;;;;;;;14.93;6.63;;;16.30;99.90;;;;;;5113206;28;20156;-79
2023/10/11 03:59:20;;;;;;;16.57;6.43;;;16.30;99.90;;;;;;5113503;28;20169;-77
2023/10/11 04:01:46;;;;;;;14.07;6.57;;;16.30;99.90;;;;;;5113408;28;20228;-79
2023/10/11 04:04:12;;;;;;;9.13;6.47;;;16.30;99.90;;;;;;5115031;28;20210;-78
2023/10/11 04:06:37;;;;;;;14.80;6.77;;;16.30;99.90;;;;;;5117264;28;20273;-77
2023/10/11 04:09:03;;;;;;;10.67;6.37;;;16.30;99.90;;;;;;5117449;28;20591;-78
2023/10/11 04:11:54;;;;;;;14.17;6.57;;;16.20;99.90;;;;;;5117440;28;20159;-77
2023/10/11 04:14:39;;;;;;;11.93;6.63;;;16.20;99.90;;;;;;5117590;28;20173;-78
2023/10/11 04:17:26;;;;;;;9.30;6.37;;;16.20;99.90;;;;;;5116528;28;20206;-78
2023/10/11 04:22:49;;;;;;;8.97;6.50;;;16.20;99.90;;;;;;5117559;28;20263;-78
2023/10/11 04:25:18;;;;;;;10.10;6.57;;;16.20;99.90;;;;;;5117346;28;20278;-78
2023/10/11 04:30:23;;;;;;;12.20;6.67;;;16.20;99.90;;;;;;5116999;28;20258;-78
2023/10/11 04:32:55;;;;;;;8.00;6.00;;;16.10;99.90;;;;;;5116999;28;20181;-78
2023/10/11 04:35:22;;;;;;;12.73;7.17;;;16.10;99.90;;;;;;5116835;28;20190;-78
2023/10/11 04:37:54;;;;;;;13.47;6.80;;;16.10;99.90;;;;;;5116847;28;20167;-79
2023/10/11 04:40:38;;;;;;;12.67;6.90;;;16.20;99.90;;;;;;5117042;28;20258;-79
2023/10/11 04:45:51;;;;;;;12.20;6.10;;;16.10;99.90;;;;;;5116381;28;20538;-78
2023/10/11 04:48:19;;;;;;;12.03;6.47;;;16.20;99.90;;;;;;5115177;28;20174;-78
2023/10/11 04:50:50;;;;;;;13.00;6.57;;;16.10;99.90;;;;;;5117906;28;20171;-79
2023/10/11 04:53:21;;;;;;;10.47;5.97;;;16.10;99.90;;;;;;5116479;28;20163;-78
2023/10/11 04:55:59;;;;;;;14.07;6.77;;;16.10;99.90;;;;;;5116749;28;20167;-77
2023/10/11 04:58:51;;;;;;;12.10;6.87;;;16.20;99.90;;;;;;5116607;28;20221;-77
2023/10/11 05:01:22;;;;;;;10.47;7.13;;;16.20;99.90;;;;;;5116034;28;20253;-78
2023/10/11 05:03:59;;;;;;;12.43;6.90;;;16.20;99.90;;;;;;5114592;28;20203;-78
2023/10/11 05:06:39;;;;;;;11.80;6.67;;;16.10;99.90;;;;;;5114963;28;20191;-77
2023/10/11 05:09:29;;;;;;;15.03;7.30;;;16.10;99.90;;;;;;5115864;28;20171;-78
2023/10/11 05:11:58;;;;;;;14.00;7.03;;;16.20;99.90;;;;;;5115602;28;20263;-79
2023/10/11 05:14:30;;;;;;;10.50;7.00;;;16.10;99.90;;;;;;5115798;28;20673;-79
2023/10/11 05:19:55;;;;;;;12.63;6.80;;;16.20;99.90;;;;;;5115756;28;20178;-78
2023/10/11 05:30:16;;;;;;;10.77;6.97;;;16.10;99.90;;;;;;5115907;28;20170;-79
2023/10/11 05:33:15;;;;;;;12.93;6.70;;;16.20;99.90;;;;;;5115083;28;20232;-79
2023/10/11 05:52:13;;;;;;;11.80;6.73;;;16.20;99.90;;;;;;5114952;28;20174;-77
2023/10/11 05:54:42;;;;;;;17.77;7.27;;;16.20;99.90;;;;;;5114681;28;20686;-78
2023/10/11 05:57:08;;;;;;;9.10;6.90;;;16.20;99.90;;;;;;5115052;28;20203;-80
2023/10/11 05:59:38;;;;;;;11.90;7.73;;;16.20;99.90;;;;;;5115030;28;20638;-79
2023/10/11 06:02:07;;;;;;;9.50;6.30;;;16.20;99.90;;;;;;5114509;28;20284;-79
2023/10/11 06:04:39;;;;;;;11.63;6.97;;;16.20;99.90;;;;;;5114315;28;20362;-79
2023/10/11 06:07:05;;;;;;;11.70;6.87;;;16.30;99.90;;;;;;5114587;27;20209;-79
2023/10/11 06:09:38;;;;;;;11.27;6.63;;;16.30;99.90;;;;;;5114493;28;20578;-78
2023/10/11 06:12:10;;;;;;;12.60;7.10;;;16.30;99.90;;;;;;5114537;28;20179;-78
2023/10/11 06:14:36;;;;;;;12.93;7.37;;;16.40;99.90;;;;;;5114769;28;20203;-79
2023/10/11 06:17:05;;;;;;;11.40;6.63;;;16.50;99.90;;;;;;5114282;28;20242;-79
2023/10/11 06:19:31;;;;;;;13.37;6.67;;;16.60;99.90;;;;;;5113099;28;20175;-79
2023/10/11 06:21:58;;;;;;;13.57;6.77;;;16.60;99.90;;;;;;5112317;28;20550;-79
2023/10/11 06:24:30;;;;;;;12.90;7.23;;;16.70;99.90;;;;;;5113157;28;20212;-78
2023/10/11 06:27:11;;;;;;;10.93;7.00;;;16.80;99.90;;;;;;5113818;28;20258;-79
2023/10/11 06:29:53;;;;;;;15.63;6.93;;;16.90;99.90;;;;;;5113310;28;20179;-79
2023/10/11 06:32:23;;;;;;;10.90;6.40;;;16.80;99.90;;;;;;5114005;28;20248;-78
2023/10/11 06:34:52;;;;;;;15.50;7.63;;;16.90;99.90;;;;;;5113574;28;20187;-78
2023/10/11 06:37:19;;;;;;;11.23;6.73;;;17.00;99.90;;;;;;5112643;28;20171;-78
2023/10/11 06:44:48;;;;;;;15.80;7.50;;;17.20;99.90;;;;;;5113319;28;20684;-80
2023/10/11 06:47:15;;;;;;;16.58;7.75;;;17.30;99.90;;;;;;5113524;28;20698;-78
2023/10/11 06:49:44;;;;;;;14.97;7.50;;;17.30;99.90;;;;;;5112145;28;20175;-79
2023/10/11 06:52:11;;;;;;;20.80;7.97;;;17.50;99.90;;;;;;5114128;28;20164;-79
2023/10/11 06:54:45;;;;;;;13.35;7.65;;;17.80;99.90;;;;;;5113779;28;20168;-79
2023/10/11 06:57:16;;;;;;;18.38;8.27;;;18.10;99.90;;;;;;5113742;28;20181;-79
2023/10/11 06:59:42;;;;;;;13.48;8.23;;;18.40;99.90;;;;;;5113911;28;20167;-78
2023/10/11 07:02:17;;;;;;;15.80;8.00;;;18.80;99.90;;;;;;5113504;28;20174;-80
2023/10/11 07:04:52;;;;;;;14.50;8.95;;;19.40;99.90;;;;;;5113409;28;20225;-80
2023/10/11 07:07:18;;;;;;;18.30;9.35;;;20.10;99.90;;;;;;5101672;28;20191;-79
2023/10/11 07:09:56;;;;;;;15.13;9.45;;;20.30;99.90;;;;;;5089061;28;20180;-77
2023/10/11 07:12:39;;;;;;;21.05;9.50;;;20.60;99.90;;;;;;5080634;28;20179;-80
2023/10/11 07:15:07;;;;;;;13.65;9.23;;;20.90;99.90;;;;;;5074887;28;20188;-79
2023/10/11 07:17:33;;;;;;;20.02;9.38;;;21.00;99.90;;;;;;5079355;28;20177;-78
2023/10/11 07:20:00;;;;;;;17.95;9.40;;;21.10;99.90;;;;;;5080372;28;20171;-80
2023/10/11 07:22:32;;;;;;;17.63;10.05;;;21.30;99.70;;;;;;5081073;28;20636;-79
2023/10/11 07:25:17;;;;;;;14.98;9.57;;;21.50;99.50;;;;;;5080403;28;20257;-80
2023/10/11 07:27:44;;;;;;;14.27;9.35;;;21.80;98.60;;;;;;5079708;28;20229;-82
2023/10/11 07:30:16;;;;;;;12.60;9.23;;;22.00;98.60;;;;;;5071341;28;20271;-79
2023/10/11 07:32:42;;;;;;;17.27;9.15;;;22.20;98.10;;;;;;5072332;28;20176;-78
2023/10/11 07:35:19;;;;;;;12.75;8.70;;;22.50;97.70;;;;;;5075203;28;20172;-79
2023/10/11 07:37:45;;;;;;;12.48;8.40;;;23.20;97.00;;;;;;5079481;28;20665;-78
2023/10/11 07:40:18;;;;;;;17.10;9.15;;;23.20;96.10;;;;;;5079947;28;20187;-79
2023/10/11 07:42:44;;;;;;;13.45;8.82;;;23.10;96.60;;;;;;5072114;28;20180;-78
2023/10/11 07:45:12;;;;;;;10.32;8.00;;;23.30;96.00;;;;;;5075356;28;20310;-78
2023/10/11 07:47:48;;;;;;;12.75;8.55;;;23.20;95.90;;;;;;5077362;28;20172;-81
2023/10/11 07:50:14;;;;;;;15.65;9.13;;;23.40;95.80;;;;;;5088365;28;20175;-77
2023/10/11 07:52:41;;;;;;;15.25;9.10;;;23.40;96.20;;;;;;5081876;28;20176;-80
2023/10/11 07:55:12;;;;;;;14.27;8.43;;;23.60;95.40;;;;;;5081940;28;20207;-79
2023/10/11 07:57:44;;;;;;;17.58;8.75;;;22.90;96.00;;;;;;5078540;28;20172;-80
2023/10/11 08:00:16;;;;;;;12.48;8.88;;;23.00;96.20;;;;;;5092272;28;20650;-80
2023/10/11 08:02:56;;;;;;;14.02;8.65;;;23.00;96.60;;;;;;5080691;28;20184;-81
2023/10/11 08:05:25;;;;;;;17.33;9.00;;;22.80;96.60;;;;;;5076968;28;20220;-79
2023/10/11 08:07:52;;;;;;;14.07;8.35;;;22.90;96.80;;;;;;5072495;28;20203;-80
2023/10/11 08:10:29;;;;;;;14.13;8.48;;;22.90;96.50;;;;;;5070917;28;20223;-79
2023/10/11 08:12:57;;;;;;;12.35;8.68;;;23.10;96.30;;;;;;5071764;28;20199;-74
2023/10/11 08:15:25;;;;;;;16.23;9.07;;;22.60;96.50;;;;;;5072287;28;20179;-74
2023/10/11 08:17:51;;;;;;;17.25;8.98;;;22.50;96.90;;;;;;5077419;28;20184;-73
2023/10/11 08:20:17;;;;;;;17.73;9.30;;;22.60;96.70;;;;;;5071333;28;20177;-72
2023/10/11 08:22:47;;;;;;;17.33;9.02;;;22.80;97.00;;;;;;5070201;28;20169;-74
2023/10/11 08:25:15;;;;;;;12.57;8.10;;;23.30;96.50;;;;;;5074942;28;20208;-75
2023/10/11 08:27:41;;;;;;;14.07;8.80;;;24.10;95.40;;;;;;5087318;28;20175;-74
2023/10/11 08:32:42;;;;;;;16.27;8.57;;;24.70;94.30;;;;;;5071644;28;20264;-73
2023/10/11 08:35:10;;;;;;;18.23;9.55;;;24.40;94.70;;;;;;5090599;28;20176;-74
2023/10/11 08:37:37;;;;;;;17.23;9.38;;;23.40;95.90;;;;;;5075846;28;20179;-74
2023/10/11 08:40:19;;;;;;;14.02;9.48;;;22.90;96.20;;;;;;5081231;28;20189;-71
2023/10/11 08:42:48;;;;;;;13.75;8.77;;;22.50;97.10;;;;;;5087774;28;20175;-72
2023/10/11 08:45:43;;;;;;;11.85;8.70;;;22.40;97.50;;;;;;5078514;28;20214;-71
2023/10/11 08:48:11;;;;;;;13.57;8.80;;;22.00;98.30;;;;;;5068823;28;20272;-72
2023/10/11 08:50:37;;;;;;;14.93;8.95;;;21.50;98.50;;;;;;5086342;28;20191;-74
2023/10/11 08:53:07;;;;;;;15.95;9.02;;;21.40;99.10;;;;;;5081881;28;20533;-74
2023/10/11 08:55:39;;;;;;;15.85;8.65;;;21.40;99.20;;;;;;5075591;28;20230;-74
2023/10/11 08:58:06;;;;;;;16.85;9.30;;;22.00;98.70;;;;;;5104482;28;20577;-76
2023/10/11 09:00:33;;;;;;;19.25;9.23;;;22.70;97.80;;;;;;5076939;28;20184;-75
2023/10/11 09:03:18;;;;;;;10.75;8.23;;;23.60;96.60;;;;;;5080483;28;20176;-75
2023/10/11 09:05:44;;;;;;;14.45;8.27;;;24.10;95.60;;;;;;5081394;28;20215;-75
2023/10/11 09:08:26;;;;;;;15.57;8.40;;;24.20;95.40;;;;;;5081838;28;20174;-74
2023/10/11 09:11:15;;;;;;;17.52;8.40;;;25.00;94.60;;;;;;5084966;28;20183;-73
2023/10/11 09:13:42;;;;;;;16.70;8.77;;;24.20;94.60;;;;;;5074790;28;20171;-75
2023/10/11 09:16:13;;;;;;;13.98;8.13;;;24.00;95.00;;;;;;5088320;28;20184;-75
2023/10/11 09:18:41;;;;;;;15.85;8.18;;;24.60;94.80;;;;;;5096212;28;20186;-74
2023/10/11 09:21:17;;;;;;;12.63;8.68;;;25.00;94.10;;;;;;5079466;28;20224;-74
2023/10/11 09:23:48;;;;;;;15.02;8.68;;;25.30;94.20;;;;;;5073609;28;20212;-72
2023/10/11 09:26:37;;;;;;;10.77;7.95;;;24.90;94.60;;;;;;5082911;28;20185;-73
2023/10/11 09:29:04;;;;;;;17.65;10.00;;;25.30;93.80;;;;;;5084597;28;20207;-75
2023/10/11 09:31:35;;;;;;;16.83;8.77;;;25.50;93.50;;;;;;5074678;28;20528;-74
2023/10/11 09:34:04;;;;;;;16.15;9.25;;;25.50;93.70;;;;;;5075726;28;20168;-74
2023/10/11 09:36:30;;;;;;;12.82;9.18;;;25.70;93.50;;;;;;5091569;28;20190;-73
2023/10/11 09:38:56;;;;;;;14.27;10.13;;;26.70;91.90;;;;;;5090684;28;20566;-72
2023/10/11 09:41:38;;;;;;;16.27;9.65;;;26.80;91.60;;;;;;5074830;28;20184;-74
2023/10/11 09:44:05;;;;;;;13.35;9.70;;;26.60;91.60;;;;;;5073143;28;20418;-74
2023/10/11 09:46:33;;;;;;;15.52;9.88;;;27.00;91.80;;;;;;5085523;28;20251;-73
2023/10/11 09:49:01;;;;;;;15.30;10.23;;;27.00;91.50;;;;;;5073003;28;20272;-74
2023/10/11 09:51:27;;;;;;;17.13;9.40;;;26.90;90.90;;;;;;5077608;28;20180;-75
2023/10/11 09:53:53;;;;;;;18.50;10.80;;;26.60;92.20;;;;;;5080153;28;20187;-75
2023/10/11 09:56:50;;;;;;;17.15;10.77;;;26.50;92.10;;;;;;5076503;28;20184;-75
2023/10/11 09:59:38;;;;;;;15.38;10.23;;;26.10;92.30;;;;;;5081081;28;20184;-74
2023/10/11 10:02:20;;;;;;;17.30;10.75;;;25.50;93.60;;;;;;5081628;28;20180;-73
2023/10/11 10:04:51;;;;;;;15.35;10.93;;;24.90;94.20;;;;;;5085195;28;20307;-77
2023/10/11 10:07:25;;;;;;;17.52;11.52;;;24.40;95.20;;;;;;5082773;28;20183;-76
2023/10/11 10:09:54;;;;;;;17.50;10.95;;;24.40;95.80;;;;;;5080879;28;20181;-75
2023/10/11 10:12:22;;;;;;;14.35;11.30;;;24.90;95.10;;;;;;5075422;28;20204;-74
2023/10/11 10:15:00;;;;;;;15.18;11.02;;;24.60;95.30;;;;;;5071884;28;20219;-78
2023/10/11 10:17:28;;;;;;;14.80;10.60;;;25.10;94.80;;;;;;5084198;28;20591;-75
2023/10/11 10:20:00;;;;;;;16.58;10.57;;;25.50;94.40;;;;;;5100321;28;20675;-74
2023/10/11 10:22:31;;;;;;;19.20;10.65;;;25.70;94.20;;;;;;5076403;28;20262;-73
2023/10/11 10:25:20;;;;;;;14.98;10.70;;;26.20;93.80;;;;;;5073457;28;20216;-73
2023/10/11 10:27:46;;;;;;;18.33;10.02;;;27.20;92.70;;;;;;5073587;28;20647;-75
2023/10/11 10:30:16;;;;;;;16.42;10.80;;;27.90;91.60;;;;;;5077460;28;20207;-74
2023/10/11 10:33:19;;;;;;;18.55;10.80;;;28.20;90.70;;;;;;5093927;28;20222;-75
2023/10/11 10:35:45;;;;;;;15.13;10.63;;;27.40;90.90;;;;;;5079676;28;20207;-74
2023/10/11 10:38:11;;;;;;;10.90;9.60;;;27.30;91.80;;;;;;5089612;28;20274;-74
2023/10/11 10:40:37;;;;;;;14.90;10.63;;;27.50;91.60;;;;;;5093298;28;20203;-75
2023/10/11 10:43:22;;;;;;;12.55;10.13;;;27.50;91.20;;;;;;5081803;28;20253;-73
2023/10/11 10:45:52;;;;;;;16.05;10.23;;;27.00;91.70;;;;;;5071918;28;20268;-75
2023/10/11 10:48:25;;;;;;;15.45;10.45;;;27.60;91.40;;;;;;5084995;28;20215;-76
2023/10/11 10:51:07;;;;;;;12.63;10.25;;;27.30;91.50;;;;;;5085062;28;20636;-75
2023/10/11 10:53:42;;;;;;;15.80;9.80;;;26.60;92.30;;;;;;5072180;28;20728;-74
2023/10/11 10:56:29;;;;;;;14.43;10.00;;;26.50;92.80;;;;;;5113417;28;20182;-72
2023/10/11 10:59:08;;;;;;;19.60;10.77;;;26.60;92.70;;;;;;5113425;28;20190;-73
2023/10/11 11:01:34;;;;;;;16.55;10.23;;;25.90;93.80;;;;;;5113310;28;20174;-73
2023/10/11 11:04:07;;;;;;;18.38;10.90;;;25.70;93.50;;;;;;5113311;28;20200;-74
2023/10/11 11:06:46;;;;;;;16.95;10.23;;;25.90;93.60;;;;;;5102877;28;20283;-71
2023/10/11 11:09:25;;;;;;;15.00;10.27;;;26.40;93.50;;;;;;5076780;28;20274;-75
2023/10/11 11:11:54;;;;;;;23.73;10.75;;;27.00;92.50;;;;;;5077109;28;20168;-71
2023/10/11 11:14:20;;;;;;;16.48;10.35;;;27.00;92.50;;;;;;5093243;28;20178;-73
2023/10/11 11:17:09;;;;;;;17.08;9.55;;;27.40;92.10;;;;;;5077177;28;20187;-73
2023/10/11 11:19:35;;;;;;;15.02;9.93;;;26.90;92.60;;;;;;5075659;28;20325;-73
2023/10/11 11:22:26;;;;;;;16.65;9.90;;;26.70;92.20;;;;;;5076594;28;20774;-74
2023/10/11 11:24:54;;;;;;;16.00;10.13;;;26.50;92.90;;;;;;5078260;28;20256;-73
2023/10/11 11:27:25;;;;;;;15.23;9.75;;;26.60;92.50;;;;;;5076786;28;20187;-70
2023/10/11 11:29:52;;;;;;;16.85;9.20;;;26.20;92.70;;;;;;5069456;28;20181;-70
2023/10/11 11:32:36;;;;;;;13.80;9.23;;;26.40;92.60;;;;;;5077194;28;20177;-72
2023/10/11 11:35:04;;;;;;;14.88;9.57;;;26.40;92.70;;;;;;5071037;28;20180;-71
2023/10/11 11:37:31;;;;;;;15.48;8.80;;;25.70;93.20;;;;;;5070679;28;20698;-72
2023/10/11 11:42:47;;;;;;;17.88;8.25;;;25.60;93.70;;;;;;5074371;28;20179;-73
2023/10/11 11:45:20;;;;;;;15.02;8.75;;;26.10;93.70;;;;;;5084322;28;20731;-72
2023/10/11 11:47:58;;;;;;;15.88;8.57;;;25.50;93.60;;;;;;5081918;28;20183;-71
2023/10/11 11:50:25;;;;;;;18.80;8.63;;;26.10;93.20;;;;;;5083025;28;20256;-70
2023/10/11 11:52:50;;;;;;;23.00;8.25;;;26.20;92.90;;;;;;5080078;28;20183;-73
2023/10/11 11:55:20;;;;;;;21.20;9.15;;;26.20;93.20;;;;;;5085058;28;20541;-72
2023/10/11 11:57:47;;;;;;;28.20;8.95;;;25.70;92.70;;;;;;5078536;28;20188;-71
2023/10/11 12:00:39;;;;;;;19.98;9.00;;;25.40;93.50;;;;;;5077614;28;20181;-74
2023/10/11 12:03:04;;;;;;;15.00;7.80;;;25.20;93.60;;;;;;5073352;28;20187;-70
2023/10/11 12:05:37;;;;;;;18.67;8.18;;;25.00;94.10;;;;;;5083642;28;20223;-75
2023/10/11 12:08:04;;;;;;;19.05;9.32;;;24.70;94.30;;;;;;5078000;28;20225;-72
2023/10/11 12:10:32;;;;;;;19.80;8.60;;;24.80;94.40;;;;;;5089839;28;20179;-72
2023/10/11 12:13:05;;;;;;;17.00;8.27;;;24.50;95.00;;;;;;5083190;28;20177;-72
2023/10/11 12:15:37;;;;;;;16.23;8.20;;;24.50;94.80;;;;;;5071914;28;20177;-74
2023/10/11 12:18:05;;;;;;;14.27;7.63;;;24.40;95.50;;;;;;5077602;28;20188;-75
2023/10/11 12:20:35;;;;;;;20.80;9.15;;;24.20;95.60;;;;;;5091330;28;20187;-72
2023/10/11 12:23:11;;;;;;;24.13;8.75;;;24.10;95.40;;;;;;5084802;28;20183;-75
2023/10/11 12:25:40;;;;;;;18.98;7.90;;;23.90;95.50;;;;;;5088982;28;20271;-72
2023/10/11 12:28:08;;;;;;;13.30;7.80;;;24.00;95.60;;;;;;5078381;28;20179;-74
2023/10/11 12:30:33;;;;;;;11.35;7.57;;;24.10;95.40;;;;;;5094416;28;20221;-72
2023/10/11 12:33:06;;;;;;;11.55;7.53;;;24.20;95.10;;;;;;5078981;28;20611;-72
2023/10/11 12:35:33;;;;;;;16.40;7.20;;;24.10;95.10;;;;;;5083163;28;20189;-71
2023/10/11 12:38:00;;;;;;;15.25;7.28;;;23.90;95.50;;;;;;5074980;28;20176;-73
2023/10/11 12:40:29;;;;;;;19.05;7.63;;;23.70;95.70;;;;;;5084652;28;20176;-70
2023/10/11 12:42:57;;;;;;;11.10;7.30;;;23.90;95.50;;;;;;5075190;28;20179;-71
2023/10/11 12:45:23;;;;;;;12.60;7.13;;;24.10;95.50;;;;;;5092117;28;20295;-70
2023/10/11 12:47:49;;;;;;;14.35;6.57;;;24.10;95.10;;;;;;5083917;28;20310;-75
2023/10/11 12:50:17;;;;;;;15.20;6.88;;;24.10;95.20;;;;;;5075192;28;20275;-73
2023/10/11 12:52:45;;;;;;;17.92;6.72;;;24.30;94.90;;;;;;5084423;28;20214;-73
2023/10/11 12:55:12;;;;;;;12.68;6.45;;;24.40;94.60;;;;;;5086780;28;20647;-71
2023/10/11 12:57:39;;;;;;;13.27;6.07;;;24.40;94.60;;;;;;5077538;28;20176;-74
2023/10/11 13:00:28;;;;;;;17.33;6.53;;;24.70;94.70;;;;;;5080320;28;20184;-70
2023/10/11 13:02:54;;;;;;;13.57;6.15;;;24.50;94.30;;;;;;5090833;28;20191;-72
2023/10/11 13:05:20;;;;;;;11.82;6.10;;;24.50;94.70;;;;;;5107166;28;20258;-71
2023/10/11 13:07:45;;;;;;;9.57;5.88;;;24.50;94.60;;;;;;5093451;28;20713;-71
2023/10/11 13:10:11;;;;;;;13.60;6.43;;;24.50;94.20;;;;;;5081331;28;20635;-69
2023/10/11 13:12:37;;;;;;;13.98;6.60;;;24.30;94.70;;;;;;5082918;28;20168;-71
2023/10/11 13:15:09;;;;;;;13.32;6.18;;;24.30;94.90;;;;;;5081407;28;20624;-71
2023/10/11 13:17:35;;;;;;;14.00;5.95;;;24.30;94.80;;;;;;5093639;28;20202;-72
2023/10/11 13:20:09;;;;;;;12.27;6.15;;;24.40;95.00;;;;;;5083658;28;20186;-73
2023/10/11 13:22:35;;;;;;;11.75;5.88;;;24.50;94.70;;;;;;5072483;28;20313;-71
2023/10/11 13:25:02;;;;;;;15.18;5.80;;;24.60;94.40;;;;;;5079144;28;20255;-71
2023/10/11 13:27:30;;;;;;;13.57;5.90;;;24.30;94.60;;;;;;5080079;28;20172;-74
2023/10/11 13:30:01;;;;;;;13.00;5.55;;;24.30;94.80;;;;;;5089269;28;20173;-70
2023/10/11 13:32:28;;;;;;;8.50;5.43;;;24.40;94.60;;;;;;5076031;28;20157;-71
2023/10/11 13:34:54;;;;;;;15.00;6.57;;;24.50;94.60;;;;;;5086554;28;20172;-70
2023/10/11 13:37:22;;;;;;;10.48;6.82;;;24.60;94.70;;;;;;5082325;28;20233;-73
2023/10/11 13:39:47;;;;;;;9.00;5.65;;;24.90;94.40;;;;;;5076407;28;20207;-72
2023/10/11 13:42:14;;;;;;;12.50;6.15;;;24.60;94.80;;;;;;5083295;28;20636;-72
2023/10/11 13:44:43;;;;;;;10.40;5.90;;;24.60;94.80;;;;;;5073716;28;20303;-71
2023/10/11 13:47:09;;;;;;;11.05;5.63;;;24.70;94.80;;;;;;5080725;28;20179;-71